Time;durP1;ratioP1;P1;durP2;ratioP2;P2;SDS_P1;SDS_P2;PMS_P1;PMS_P2;Temp;Humidity;BMP_temperature;BMP_pressure;BME280_temperature;BME280_humidity;BME280_pressure;Samples;Min_cycle;Max_cycle;Signal;HPM_P1;HPM_P2
2022/10/09 00:01:54;;;;;;;85.82;53.60;;;;;;;16.44;100.00;100093.56;5031253;28;20053;-83
2022/10/09 00:04:19;;;;;;;89.95;54.47;;;;;;;16.42;100.00;100090.25;5031012;28;20041;-83
2022/10/09 00:06:45;;;;;;;88.20;53.85;;;;;;;16.42;100.00;100092.91;5031576;28;20029;-83
2022/10/09 00:09:10;;;;;;;78.70;50.78;;;;;;;16.39;100.00;100085.25;5033371;28;20053;-82
2022/10/09 00:11:36;;;;;;;86.03;53.40;;;;;;;16.44;100.00;100098.91;5032153;28;20068;-83
2022/10/09 00:14:02;;;;;;;81.95;50.55;;;;;;;16.48;100.00;100094.09;5030954;28;20029;-83
2022/10/09 00:16:28;;;;;;;76.85;48.53;;;;;;;16.52;100.00;100101.56;5030585;28;20060;-83
2022/10/09 00:18:54;;;;;;;83.97;51.20;;;;;;;16.54;100.00;100104.91;5032485;28;20029;-83
2022/10/09 00:21:30;;;;;;;76.18;49.45;;;;;;;16.56;100.00;100108.22;5030765;28;20072;-83
2022/10/09 00:23:59;;;;;;;73.25;47.58;;;;;;;16.45;100.00;100105.88;5028279;28;20025;-82
2022/10/09 00:26:25;;;;;;;73.43;47.28;;;;;;;16.43;100.00;100102.59;5030501;28;20386;-83
2022/10/09 00:28:51;;;;;;;71.82;46.47;;;;;;;16.43;100.00;100101.75;5034121;28;20041;-84
2022/10/09 00:31:17;;;;;;;77.38;48.70;;;;;;;16.43;100.00;100107.91;5041587;28;20033;-84
2022/10/09 00:33:43;;;;;;;75.65;47.60;;;;;;;16.44;100.00;100109.53;5032335;28;20120;-84
2022/10/09 00:36:12;;;;;;;79.82;49.08;;;;;;;16.41;100.00;100109.06;5033092;28;20473;-82
2022/10/09 00:38:37;;;;;;;79.10;50.40;;;;;;;16.44;100.00;100125.53;5031469;28;20096;-84
2022/10/09 00:41:03;;;;;;;78.65;49.53;;;;;;;16.47;100.00;100119.06;5031576;28;20029;-82
2022/10/09 00:43:39;;;;;;;81.90;51.33;;;;;;;16.51;100.00;100110.56;5031045;28;20029;-84
2022/10/09 00:46:16;;;;;;;83.43;50.55;;;;;;;16.41;100.00;100098.41;5031286;28;20045;-84
2022/10/09 00:48:42;;;;;;;85.95;52.25;;;;;;;16.37;100.00;100101.38;5037777;28;20478;-84
2022/10/09 00:51:08;;;;;;;79.88;51.83;;;;;;;16.43;100.00;100105.25;5030529;28;20052;-83
2022/10/09 00:53:34;;;;;;;87.40;53.75;;;;;;;16.41;100.00;100103.72;5031096;28;20037;-83
2022/10/09 00:56:00;;;;;;;76.53;49.25;;;;;;;16.40;100.00;100102.91;5031822;28;20029;-84
2022/10/09 00:58:25;;;;;;;87.82;52.88;;;;;;;16.38;100.00;100099.56;5031380;28;20037;-82
2022/10/09 01:00:52;;;;;;;82.43;51.13;;;;;;;16.42;100.00;100100.91;5030953;28;20030;-82
2022/10/09 01:03:17;;;;;;;82.97;51.95;;;;;;;16.40;100.00;100097.56;5028511;28;20049;-83
2022/10/09 01:06:01;;;;;;;79.53;50.38;;;;;;;16.44;100.00;100098.06;5040084;28;20044;-82
2022/10/09 01:08:33;;;;;;;81.70;49.47;;;;;;;16.47;100.00;100101.25;5032241;28;20485;-82
2022/10/09 01:11:10;;;;;;;77.95;49.92;;;;;;;16.40;100.00;100097.56;5031544;28;20562;-83
2022/10/09 01:14:07;;;;;;;74.88;47.60;;;;;;;16.19;100.00;100094.59;5030841;28;20041;-82
2022/10/09 01:16:43;;;;;;;76.95;49.35;;;;;;;16.24;100.00;100097.56;5032264;28;20043;-83
2022/10/09 01:19:32;;;;;;;79.50;49.75;;;;;;;16.29;100.00;100095.25;5041869;28;20542;-83
2022/10/09 01:22:16;;;;;;;78.05;50.40;;;;;;;16.32;100.00;100095.72;5031078;28;20334;-83
2022/10/09 01:24:53;;;;;;;83.85;51.38;;;;;;;16.37;100.00;100092.59;5030630;28;20532;-83
2022/10/09 01:27:24;;;;;;;82.93;51.85;;;;;;;16.38;100.00;100094.22;5029482;28;20464;-83
2022/10/09 01:30:06;;;;;;;75.70;49.15;;;;;;;16.37;100.00;100097.91;5027057;28;20477;-82
2022/10/09 01:32:37;;;;;;;77.32;48.50;;;;;;;16.38;100.00;100096.91;5028438;28;20369;-82
2022/10/09 01:35:05;;;;;;;76.00;48.90;;;;;;;16.36;100.00;100101.56;5030792;28;20482;-82
2022/10/09 01:37:33;;;;;;;72.88;45.03;;;;;;;16.21;100.00;100093.41;5030349;28;20091;-82
2022/10/09 01:40:00;;;;;;;75.15;47.35;;;;;;;16.14;100.00;100087.06;5030850;28;20092;-81
2022/10/09 01:42:28;;;;;;;74.18;47.08;;;;;;;16.16;100.00;100092.25;5042844;28;20390;-83
2022/10/09 01:44:54;;;;;;;76.70;46.97;;;;;;;16.15;100.00;100098.56;5032373;28;20033;-82
2022/10/09 01:47:20;;;;;;;80.40;48.60;;;;;;;16.18;100.00;100087.59;5030297;28;20032;-83
2022/10/09 01:49:52;;;;;;;76.80;48.90;;;;;;;16.24;100.00;100087.75;5030748;28;20512;-83
2022/10/09 01:52:27;;;;;;;77.85;49.00;;;;;;;16.24;100.00;100081.59;5030573;28;20024;-83
2022/10/09 01:55:18;;;;;;;79.47;50.47;;;;;;;16.25;100.00;100083.28;5025897;28;20415;-83
2022/10/09 01:57:52;;;;;;;82.07;50.28;;;;;;;16.25;100.00;100083.28;5046074;28;20433;-83
2022/10/09 02:00:20;;;;;;;87.30;50.92;;;;;;;16.29;100.00;100079.28;5039995;28;20385;-82
2022/10/09 02:02:47;;;;;;;85.18;51.83;;;;;;;16.30;100.00;100076.44;5028732;28;20120;-82
2022/10/09 02:05:22;;;;;;;79.68;50.00;;;;;;;16.24;100.00;100077.09;5034762;28;20468;-82
2022/10/09 02:07:48;;;;;;;82.80;50.35;;;;;;;16.29;100.00;100079.28;5083363;22;20052;-76
2022/10/09 02:10:16;;;;;;;84.00;52.40;;;;;;;16.29;100.00;100073.94;5068535;28;20029;-76
2022/10/09 02:12:50;;;;;;;83.22;50.97;;;;;;;16.24;100.00;100077.09;5074160;28;20337;-76
2022/10/09 02:15:15;;;;;;;83.25;51.38;;;;;;;16.23;100.00;100075.44;5073900;28;20444;-76
2022/10/09 02:17:47;;;;;;;85.90;52.15;;;;;;;16.25;100.00;100077.94;5073252;28;20071;-76
2022/10/09 02:20:20;;;;;;;84.03;51.85;;;;;;;16.27;100.00;100073.25;5073958;28;20086;-76
2022/10/09 02:22:47;;;;;;;84.97;53.08;;;;;;;16.23;100.00;100079.94;5078027;28;20024;-75
2022/10/09 02:25:14;;;;;;;82.78;50.03;;;;;;;16.24;100.00;100076.28;5073928;28;20036;-76
2022/10/09 02:27:40;;;;;;;80.03;51.05;;;;;;;16.24;100.00;100070.94;5071687;28;20033;-76
2022/10/09 02:30:08;;;;;;;81.45;50.85;;;;;;;16.24;100.00;100073.63;5074046;28;20031;-75
2022/10/09 02:32:33;;;;;;;82.25;51.47;;;;;;;16.23;100.00;100069.28;5073173;28;20036;-76
2022/10/09 02:34:59;;;;;;;84.97;51.83;;;;;;;16.14;100.00;100071.09;5073822;28;20048;-76
2022/10/09 02:37:24;;;;;;;83.88;52.83;;;;;;;15.98;100.00;100065.75;5073131;28;20438;-76
2022/10/09 02:39:50;;;;;;;84.22;52.00;;;;;;;15.99;100.00;100072.75;5074053;28;20033;-76
2022/10/09 02:42:16;;;;;;;90.25;54.72;;;;;;;16.07;100.00;100074.59;5077621;28;20028;-76
2022/10/09 02:44:41;;;;;;;85.38;52.55;;;;;;;16.14;100.00;100075.63;5073688;28;20032;-76
2022/10/09 02:47:07;;;;;;;86.38;53.15;;;;;;;16.18;100.00;100071.63;5073579;28;20068;-76
2022/10/09 02:49:32;;;;;;;86.68;53.20;;;;;;;16.20;100.00;100074.94;5073020;28;20056;-76
2022/10/09 02:51:58;;;;;;;86.22;53.15;;;;;;;16.17;100.00;100075.28;5072143;28;20113;-76
2022/10/09 02:54:23;;;;;;;88.65;53.20;;;;;;;16.21;100.00;100071.25;5073170;28;20039;-75
2022/10/09 02:56:49;;;;;;;86.88;52.13;;;;;;;16.18;100.00;100069.78;5073312;28;20111;-76
2022/10/09 02:59:14;;;;;;;85.00;54.45;;;;;;;16.19;100.00;100068.78;5073499;28;20099;-76
2022/10/09 03:01:40;;;;;;;82.90;51.90;;;;;;;16.05;100.00;100073.94;5076288;28;20131;-76
2022/10/09 03:04:05;;;;;;;85.82;51.25;;;;;;;16.05;100.00;100077.44;5073149;28;20040;-76
2022/10/09 03:06:31;;;;;;;87.88;53.17;;;;;;;16.07;100.00;100069.28;5071207;28;20102;-75
2022/10/09 03:08:57;;;;;;;90.10;52.78;;;;;;;16.12;100.00;100077.59;5073376;28;20033;-75
2022/10/09 03:11:24;;;;;;;90.70;54.25;;;;;;;16.17;100.00;100072.59;5073044;28;20052;-77
2022/10/09 03:13:50;;;;;;;90.07;53.00;;;;;;;16.21;100.00;100076.59;5072246;28;20021;-76
2022/10/09 03:16:18;;;;;;;86.13;52.65;;;;;;;16.16;100.00;100084.25;5071811;28;20055;-77
2022/10/09 03:18:45;;;;;;;91.60;53.95;;;;;;;16.10;100.00;100077.75;5072789;28;20037;-76
2022/10/09 03:21:16;;;;;;;90.18;53.95;;;;;;;16.13;100.00;100079.28;5076095;28;20032;-77
2022/10/09 03:23:42;;;;;;;87.53;53.90;;;;;;;16.18;100.00;100082.25;5072911;28;20473;-76
2022/10/09 03:26:10;;;;;;;89.50;53.17;;;;;;;16.21;100.00;100081.91;5073023;28;20079;-76
2022/10/09 03:28:41;;;;;;;86.18;53.72;;;;;;;16.19;100.00;100084.78;5072651;28;20127;-75
2022/10/09 03:31:07;;;;;;;;;;;;;;;16.23;100.00;100079.94;5071772;28;20162;-76
2022/10/09 03:33:33;;;;;;;88.32;51.92;;;;;;;16.23;100.00;100077.28;5072513;28;19920;-76
2022/10/09 03:35:59;;;;;;;83.68;52.08;;;;;;;16.23;100.00;100070.13;5071398;28;20059;-77
2022/10/09 03:38:24;;;;;;;86.68;52.67;;;;;;;16.19;100.00;100073.28;5076465;28;20067;-77
2022/10/09 03:40:50;;;;;;;88.40;53.72;;;;;;;16.14;100.00;100075.63;5072754;28;20060;-76
2022/10/09 03:43:17;;;;;;;88.82;52.70;;;;;;;16.09;100.00;100083.25;5071951;28;20036;-76
2022/10/09 03:45:43;;;;;;;83.60;51.90;;;;;;;16.01;100.00;100091.25;5071693;28;20036;-75
2022/10/09 03:48:11;;;;;;;80.85;51.20;;;;;;;15.92;100.00;100101.03;5072285;28;20104;-75
2022/10/09 03:50:38;;;;;;;89.50;52.65;;;;;;;16.02;100.00;100092.91;5071467;28;20029;-75
2022/10/09 03:53:05;;;;;;;87.47;53.30;;;;;;;16.06;100.00;100089.75;5071753;28;20461;-76
2022/10/09 03:55:30;;;;;;;89.57;52.08;;;;;;;16.04;100.00;100096.22;5071558;28;20028;-76
2022/10/09 03:57:56;;;;;;;92.75;54.13;;;;;;;16.05;100.00;100100.56;5075984;28;20036;-76
2022/10/09 04:00:21;;;;;;;90.35;53.25;;;;;;;16.09;100.00;100099.22;5071680;28;20107;-76
2022/10/09 04:02:46;;;;;;;86.05;52.85;;;;;;;16.11;100.00;100107.88;5071536;28;20108;-76
2022/10/09 04:05:12;;;;;;;83.47;52.28;;;;;;;16.10;100.00;100101.72;5066222;28;20044;-76
2022/10/09 04:07:38;;;;;;;81.15;51.38;;;;;;;16.14;100.00;100096.91;5071077;28;20063;-76
2022/10/09 04:10:03;;;;;;;86.28;52.72;;;;;;;16.15;100.00;100109.19;5071510;28;20143;-75
2022/10/09 04:12:29;;;;;;;84.35;50.72;;;;;;;16.14;100.00;100102.25;5071200;28;20450;-74
2022/10/09 04:14:54;;;;;;;89.60;52.97;;;;;;;16.03;100.00;100094.53;5071635;28;20045;-76
2022/10/09 04:17:20;;;;;;;83.90;52.45;;;;;;;15.91;100.00;100102.84;5074124;28;20116;-76
2022/10/09 04:19:45;;;;;;;87.47;52.55;;;;;;;15.84;100.00;100096.53;5070278;28;20060;-76
2022/10/09 04:22:10;;;;;;;83.68;51.08;;;;;;;15.90;100.00;100098.53;5071161;28;20021;-76
2022/10/09 04:24:36;;;;;;;96.75;54.00;;;;;;;15.97;100.00;100091.53;5071406;28;20102;-76
2022/10/09 04:27:02;;;;;;;91.50;53.85;;;;;;;15.98;100.00;100093.22;5071309;28;20063;-76
2022/10/09 04:29:27;;;;;;;87.53;54.00;;;;;;;15.97;100.00;100102.19;5070999;28;20028;-76
2022/10/09 04:31:52;;;;;;;90.55;51.03;;;;;;;15.97;100.00;100093.38;5071019;28;20024;-76
2022/10/09 04:34:18;;;;;;;94.25;54.25;;;;;;;15.92;100.00;100091.22;5070810;28;20077;-76
2022/10/09 04:36:44;;;;;;;91.97;53.97;;;;;;;15.88;100.00;100089.88;5075173;28;20173;-76
2022/10/09 04:39:09;;;;;;;97.32;56.80;;;;;;;15.85;100.00;100092.03;5070927;28;20040;-76
2022/10/09 04:41:34;;;;;;;89.00;55.20;;;;;;;15.87;100.00;100088.22;5070602;28;20035;-76
2022/10/09 04:44:00;;;;;;;95.40;55.95;;;;;;;15.91;100.00;100091.38;5070866;28;20341;-75
2022/10/09 04:46:25;;;;;;;96.93;55.17;;;;;;;15.92;100.00;100091.22;5070322;28;20024;-75
2022/10/09 04:48:51;;;;;;;90.35;53.90;;;;;;;15.95;100.00;100093.56;5071078;28;20024;-76
2022/10/09 04:51:17;;;;;;;90.10;53.78;;;;;;;15.97;100.00;100096.88;5070846;28;20066;-76
2022/10/09 04:53:43;;;;;;;82.60;50.80;;;;;;;16.02;100.00;100087.59;5070538;28;20599;-76
2022/10/09 04:56:13;;;;;;;69.97;45.63;;;;;;;16.01;100.00;100096.56;5072860;28;20024;-76
2022/10/09 04:58:39;;;;;;;67.00;43.22;;;;;;;15.95;100.00;100098.88;5070653;28;20039;-76
2022/10/09 05:01:13;;;;;;;57.00;36.72;;;;;;;15.92;100.00;100093.88;5068925;28;20111;-75
2022/10/09 05:03:38;;;;;;;50.30;35.25;;;;;;;15.89;100.00;100098.69;5069243;28;20051;-76
2022/10/09 05:06:06;;;;;;;59.65;37.95;;;;;;;15.90;100.00;100101.19;5070676;28;20036;-76
2022/10/09 05:08:32;;;;;;;51.28;33.65;;;;;;;15.88;100.00;100102.34;5070099;28;20465;-75
2022/10/09 05:11:06;;;;;;;49.70;33.00;;;;;;;15.82;100.00;100103.84;5069328;28;20059;-74
2022/10/09 05:13:35;;;;;;;52.63;34.65;;;;;;;15.89;100.00;100109.34;5070066;28;20028;-76
2022/10/09 05:16:03;;;;;;;50.85;32.80;;;;;;;15.80;100.00;100111.16;5070416;28;20475;-75
2022/10/09 05:18:29;;;;;;;48.80;33.72;;;;;;;15.86;100.00;100105.19;5069927;28;20368;-75
2022/10/09 05:20:55;;;;;;;47.13;34.15;;;;;;;15.90;100.00;100105.69;5070580;28;20379;-76
2022/10/09 05:23:20;;;;;;;51.42;33.15;;;;;;;15.86;100.00;100113.16;5072686;28;20029;-76
2022/10/09 05:26:05;;;;;;;50.60;33.97;;;;;;;15.81;100.00;100104.84;5070370;28;20021;-75
2022/10/09 05:28:32;;;;;;;51.97;34.05;;;;;;;15.73;100.00;100104.81;5067841;28;20031;-76
2022/10/09 05:30:58;;;;;;;51.80;34.72;;;;;;;15.79;100.00;100105.97;5070191;28;20047;-75
2022/10/09 05:33:23;;;;;;;53.00;35.33;;;;;;;15.86;100.00;100110.50;5070145;28;20385;-75
2022/10/09 05:35:55;;;;;;;53.63;34.22;;;;;;;15.88;100.00;100113.84;5070490;28;20028;-76
2022/10/09 05:38:21;;;;;;;57.20;35.40;;;;;;;15.95;100.00;100116.69;5070349;28;20037;-76
2022/10/09 05:40:57;;;;;;;50.45;34.30;;;;;;;15.98;100.00;100117.19;5075800;28;20056;-75
2022/10/09 05:43:28;;;;;;;48.85;31.48;;;;;;;15.97;100.00;100123.50;5070902;28;20027;-73
2022/10/09 05:45:54;;;;;;;46.92;31.95;;;;;;;15.93;100.00;100116.84;5075154;28;20293;-76
2022/10/09 05:48:20;;;;;;;43.92;29.85;;;;;;;15.95;100.00;100120.19;5075239;28;20447;-77
2022/10/09 05:50:46;;;;;;;44.88;30.55;;;;;;;15.94;100.00;100128.31;5075490;28;20021;-76
2022/10/09 05:53:12;;;;;;;42.72;29.77;;;;;;;15.98;100.00;100124.31;5075363;28;20032;-75
2022/10/09 05:55:37;;;;;;;45.30;30.30;;;;;;;16.02;100.00;100130.19;5074076;28;20036;-75
2022/10/09 05:58:03;;;;;;;41.72;29.27;;;;;;;15.93;100.00;100119.50;5074024;28;20036;-75
2022/10/09 06:00:30;;;;;;;42.60;28.63;;;;;;;15.94;100.00;100123.84;5076748;28;20502;-75
2022/10/09 06:02:55;;;;;;;40.80;29.52;;;;;;;15.72;100.00;100116.47;5073636;28;20047;-74
2022/10/09 06:05:22;;;;;;;43.53;29.95;;;;;;;15.75;100.00;100126.78;5073695;28;20032;-74
2022/10/09 06:07:47;;;;;;;41.80;29.52;;;;;;;15.81;100.00;100131.44;5073962;28;20043;-75
2022/10/09 06:10:13;;;;;;;45.05;30.05;;;;;;;15.87;100.00;100133.47;5073986;28;20036;-75
2022/10/09 06:12:38;;;;;;;42.95;29.33;;;;;;;15.93;100.00;100138.13;5073476;28;20051;-75
2022/10/09 06:15:04;;;;;;;45.03;31.20;;;;;;;15.96;100.00;100140.44;5073777;28;20032;-75
2022/10/09 06:17:31;;;;;;;42.38;29.40;;;;;;;15.96;100.00;100145.78;5072950;28;20113;-75
2022/10/09 06:19:57;;;;;;;38.28;27.42;;;;;;;15.92;100.00;100144.44;5074222;28;20032;-75
2022/10/09 06:22:22;;;;;;;38.20;27.60;;;;;;;16.00;100.00;100142.81;5073460;28;20025;-75
2022/10/09 06:24:48;;;;;;;36.40;28.42;;;;;;;16.00;100.00;100148.13;5072556;28;20035;-75
2022/10/09 06:27:13;;;;;;;38.50;27.63;;;;;;;15.93;100.00;100154.09;5071905;28;20027;-75
2022/10/09 06:29:39;;;;;;;38.13;28.15;;;;;;;15.92;100.00;100152.44;5073253;28;20370;-76
2022/10/09 06:32:04;;;;;;;38.22;28.35;;;;;;;15.88;100.00;100151.09;5073184;28;20043;-75
2022/10/09 06:34:30;;;;;;;43.70;30.10;;;;;;;15.86;100.00;100155.75;5073053;28;20054;-74
2022/10/09 06:36:55;;;;;;;42.65;30.25;;;;;;;15.85;100.00;100156.72;5073465;28;20391;-73
2022/10/09 06:39:21;;;;;;;38.83;28.23;;;;;;;15.87;100.00;100157.41;5077130;28;20033;-74
2022/10/09 06:41:47;;;;;;;35.72;27.05;;;;;;;15.90;100.00;100157.06;5073224;28;20029;-77
2022/10/09 06:44:28;;;;;;;48.17;28.13;;;;;;;15.76;100.00;100168.34;5069516;28;20427;-74
2022/10/09 06:46:54;;;;;;;37.67;27.98;;;;;;;15.72;100.00;100166.19;5072739;28;20094;-75
2022/10/09 06:49:19;;;;;;;36.28;26.98;;;;;;;15.70;100.00;100162.84;5071451;28;20036;-75
2022/10/09 06:51:45;;;;;;;42.38;28.60;;;;;;;15.63;100.00;100162.66;5073222;28;20032;-77
2022/10/09 06:54:13;;;;;;;40.85;28.70;;;;;;;15.62;100.00;100165.47;5071270;28;20183;-75
2022/10/09 06:56:38;;;;;;;42.00;28.55;;;;;;;15.58;100.00;100164.97;5075041;28;20044;-77
2022/10/09 06:59:06;;;;;;;45.03;28.67;;;;;;;15.59;100.00;100166.63;5075164;28;20078;-75
2022/10/09 07:01:32;;;;;;;40.88;28.70;;;;;;;15.61;100.00;100169.94;5072539;28;20111;-77
2022/10/09 07:04:06;;;;;;;39.28;28.65;;;;;;;15.60;100.00;100178.09;5073178;28;20107;-76
2022/10/09 07:06:33;;;;;;;42.03;29.15;;;;;;;15.54;100.00;100174.25;5071079;28;20064;-74
2022/10/09 07:09:01;;;;;;;42.10;28.88;;;;;;;15.55;100.00;100176.72;5070201;28;20043;-77
2022/10/09 07:11:31;;;;;;;46.33;31.42;;;;;;;15.52;100.00;100170.91;5071025;28;20025;-74
2022/10/09 07:13:59;;;;;;;43.55;28.90;;;;;;;15.51;100.00;100185.16;5072473;28;20086;-74
2022/10/09 07:16:36;;;;;;;46.08;29.42;;;;;;;15.51;100.00;100179.84;5076138;28;20078;-74
2022/10/09 07:19:06;;;;;;;44.45;29.80;;;;;;;15.49;100.00;100184.50;5072149;28;20119;-75
2022/10/09 07:21:34;;;;;;;44.70;31.25;;;;;;;15.44;100.00;100184.13;5072766;28;20154;-74
2022/10/09 07:24:01;;;;;;;46.40;30.30;;;;;;;15.48;100.00;100185.50;5072417;28;20112;-75
2022/10/09 07:26:29;;;;;;;42.15;31.27;;;;;;;15.43;100.00;100187.81;5072416;28;20021;-75
2022/10/09 07:28:55;;;;;;;45.05;30.35;;;;;;;15.46;100.00;100188.31;5072193;28;20463;-75
2022/10/09 07:31:21;;;;;;;42.00;30.38;;;;;;;15.53;100.00;100185.88;5071960;28;20044;-74
2022/10/09 07:33:49;;;;;;;41.75;28.60;;;;;;;15.51;100.00;100188.66;5072162;28;20333;-76
2022/10/09 07:36:15;;;;;;;40.72;29.98;;;;;;;15.52;100.00;100186.88;5076298;28;20043;-76
2022/10/09 07:38:41;;;;;;;40.38;29.15;;;;;;;15.51;100.00;100186.00;5072121;28;20024;-75
2022/10/09 07:41:10;;;;;;;41.58;28.73;;;;;;;15.50;100.00;100188.81;5072114;28;20112;-75
2022/10/09 07:43:38;;;;;;;51.03;29.73;;;;;;;15.50;100.00;100192.31;5071862;28;20036;-74
2022/10/09 07:46:05;;;;;;;41.65;29.55;;;;;;;15.48;100.00;100198.81;5071892;28;20052;-76
2022/10/09 07:48:32;;;;;;;45.95;30.63;;;;;;;15.54;100.00;100193.72;5071335;28;20104;-75
2022/10/09 07:51:08;;;;;;;42.55;29.33;;;;;;;15.58;100.00;100196.88;5072104;28;20032;-75
2022/10/09 07:53:34;;;;;;;45.97;30.00;;;;;;;15.62;100.00;100197.38;5072966;28;20028;-75
2022/10/09 07:55:59;;;;;;;41.50;30.02;;;;;;;15.58;100.00;100202.19;5074509;28;20357;-76
2022/10/09 07:58:25;;;;;;;45.38;30.58;;;;;;;15.66;100.00;100196.94;5071437;28;20039;-75
2022/10/09 08:00:50;;;;;;;40.67;30.45;;;;;;;15.71;100.00;100196.44;5071126;28;20427;-75
2022/10/09 08:03:15;;;;;;;42.15;29.27;;;;;;;15.78;100.00;100198.31;5070940;28;20114;-75
2022/10/09 08:05:41;;;;;;;42.97;29.55;;;;;;;15.77;100.00;100195.81;5070060;28;20469;-74
2022/10/09 08:08:06;;;;;;;38.22;26.52;;;;;;;15.72;100.00;100192.78;5071846;28;20507;-74
2022/10/09 08:10:32;;;;;;;37.70;27.10;;;;;;;15.78;100.00;100197.47;5071122;28;20025;-75
2022/10/09 08:12:58;;;;;;;37.40;27.45;;;;;;;15.77;100.00;100191.31;5075733;28;20035;-75
2022/10/09 08:15:23;;;;;;;32.88;25.95;;;;;;;15.87;100.00;100201.81;5071178;28;20046;-76
2022/10/09 08:17:51;;;;;;;36.75;25.98;;;;;;;15.93;100.00;100202.00;5052219;28;20111;-76
2022/10/09 08:20:17;;;;;;;34.17;24.63;;;;;;;15.93;100.00;100202.00;5071030;28;20029;-76
2022/10/09 08:22:42;;;;;;;29.60;24.20;;;;;;;15.98;100.00;100204.19;5071248;28;21074;-76
2022/10/09 08:25:08;;;;;;;29.70;23.52;;;;;;;16.02;100.00;100204.72;5071502;28;20039;-76
2022/10/09 08:27:33;;;;;;;30.23;22.40;;;;;;;15.92;100.00;100205.66;5070874;28;20032;-76
2022/10/09 08:29:59;;;;;;;29.58;21.70;;;;;;;16.01;100.00;100213.69;5071276;28;20036;-76
2022/10/09 08:32:24;;;;;;;28.17;22.98;;;;;;;16.04;100.00;100214.19;5074433;28;20036;-76
2022/10/09 08:34:51;;;;;;;29.23;22.23;;;;;;;16.08;100.00;100210.19;5070981;28;20024;-76
2022/10/09 08:37:17;;;;;;;28.55;20.88;;;;;;;16.14;100.00;100216.72;5064835;28;20033;-75
2022/10/09 08:39:42;;;;;;;20.38;16.42;;;;;;;16.16;100.00;100218.22;5069378;28;20481;-76
2022/10/09 08:42:21;;;;;;;17.35;14.80;;;;;;;16.15;100.00;100216.53;5070970;28;20102;-76
2022/10/09 08:44:48;;;;;;;17.15;14.98;;;;;;;16.17;100.00;100219.06;5070673;28;20064;-76
2022/10/09 08:47:23;;;;;;;16.77;13.38;;;;;;;16.18;100.00;100220.72;5070361;28;20115;-76
2022/10/09 08:49:48;;;;;;;14.82;13.05;;;;;;;16.16;100.00;100228.03;5065333;28;20090;-76
2022/10/09 08:52:33;;;;;;;15.88;12.82;;;;;;;16.20;100.00;100232.06;5072127;28;20362;-76
2022/10/09 08:55:10;;;;;;;15.60;13.65;;;;;;;16.24;100.00;100222.72;5067981;28;20461;-75
2022/10/09 08:57:35;;;;;;;16.15;13.13;;;;;;;16.31;100.00;100226.41;5070393;28;20122;-75
2022/10/09 09:00:01;;;;;;;14.02;12.55;;;;;;;16.30;100.00;100228.25;5070738;28;20039;-75
2022/10/09 09:03:06;;;;;;;14.90;12.82;;;;;;;16.37;100.00;100231.09;5070016;28;20547;-75
2022/10/09 09:06:14;;;;;;;14.48;13.07;;;;;;;16.39;100.00;100237.06;5065757;28;20048;-76
2022/10/09 09:08:49;;;;;;;12.10;11.00;;;;;;;16.37;100.00;100231.09;5069059;28;20028;-76
2022/10/09 09:11:32;;;;;;;12.43;11.30;;;;;;;16.33;100.00;100243.06;5073588;28;20075;-75
2022/10/09 09:14:22;;;;;;;12.27;11.07;;;;;;;16.38;100.00;100236.22;5069763;28;20039;-74
2022/10/09 09:16:54;;;;;;;13.27;11.87;;;;;;;16.42;100.00;100238.59;5070243;28;20032;-75
2022/10/09 09:19:37;;;;;;;13.35;12.05;;;;;;;16.45;100.00;100233.75;5065909;28;20028;-77
2022/10/09 09:22:04;;;;;;;13.25;11.95;;;;;;;16.38;100.00;100238.06;5067970;28;20441;-77
2022/10/09 09:24:37;;;;;;;13.23;11.82;;;;;;;16.45;100.00;100233.75;5069931;28;20039;-77
2022/10/09 09:27:11;;;;;;;13.75;12.35;;;;;;;16.48;100.00;100233.44;5070262;28;20024;-76
2022/10/09 09:29:47;;;;;;;13.35;11.98;;;;;;;16.51;100.00;100240.25;5072066;28;20085;-76
2022/10/09 09:32:22;;;;;;;13.77;12.40;;;;;;;16.50;100.00;100234.09;5069998;28;20032;-76
2022/10/09 09:34:48;;;;;;;13.85;12.32;;;;;;;16.47;100.00;100242.44;5070198;28;20036;-76
2022/10/09 09:37:14;;;;;;;13.65;11.50;;;;;;;16.55;100.00;100245.09;5070020;28;20189;-76
2022/10/09 09:39:40;;;;;;;13.98;10.88;;;;;;;16.54;100.00;100243.44;5069891;28;20039;-76
2022/10/09 09:42:06;;;;;;;12.75;11.45;;;;;;;16.53;100.00;100239.09;5052045;28;20031;-76
2022/10/09 09:44:33;;;;;;;13.18;11.88;;;;;;;16.53;100.00;100241.78;5069649;28;20384;-76
2022/10/09 09:46:59;;;;;;;12.55;11.25;;;;;;;16.53;100.00;100241.78;5070016;28;20449;-76
2022/10/09 09:49:27;;;;;;;13.98;11.68;;;;;;;16.52;100.00;100236.59;5073728;28;20056;-76
2022/10/09 09:51:55;;;;;;;13.90;11.40;;;;;;;16.54;100.00;100227.47;5068369;28;20032;-76
2022/10/09 09:54:28;;;;;;;13.95;12.43;;;;;;;16.61;100.00;100227.66;5069609;28;20040;-76
2022/10/09 09:56:56;;;;;;;13.40;12.18;;;;;;;16.62;100.00;100234.63;5068804;28;20516;-76
2022/10/09 09:59:40;;;;;;;14.20;12.40;;;;;;;16.63;100.00;100228.31;5066129;28;20142;-76
2022/10/09 10:02:16;;;;;;;15.52;12.60;;;;;;;16.68;100.00;100229.47;5069597;28;20044;-76
2022/10/09 10:05:21;;;;;;;12.18;10.90;;;;;;;16.67;100.00;100227.81;5069625;28;20028;-76
2022/10/09 10:07:49;;;;;;;12.93;11.15;;;;;;;16.67;100.00;100230.47;5062053;28;20044;-76
2022/10/09 10:10:23;;;;;;;12.77;11.57;;;;;;;16.71;100.00;100229.16;5069819;28;20037;-76
2022/10/09 10:12:55;;;;;;;11.90;10.85;;;;;;;16.71;100.00;100229.16;5070039;28;20033;-77
2022/10/09 10:15:20;;;;;;;12.00;10.75;;;;;;;16.75;100.00;100229.66;5066298;28;20480;-76
2022/10/09 10:17:48;;;;;;;12.60;11.40;;;;;;;16.75;100.00;100225.16;5068741;28;20065;-76
2022/10/09 10:20:16;;;;;;;10.88;9.77;;;;;;;16.68;100.00;100229.47;5069802;28;20037;-76
2022/10/09 10:22:49;;;;;;;11.15;10.05;;;;;;;16.74;100.00;100227.97;5071478;28;20028;-77
2022/10/09 10:25:18;;;;;;;12.23;10.68;;;;;;;16.72;100.00;100228.19;5074124;28;20579;-76
2022/10/09 10:27:48;;;;;;;10.95;9.95;;;;;;;16.78;100.00;100240.00;5074136;28;20024;-76
2022/10/09 10:30:16;;;;;;;13.00;9.93;;;;;;;16.77;100.00;100233.84;5076712;28;20539;-77
2022/10/09 10:32:49;;;;;;;11.68;10.52;;;;;;;16.75;100.00;100225.16;5074090;28;20094;-75
2022/10/09 10:35:37;;;;;;;10.98;9.80;;;;;;;16.71;100.00;100223.84;5072872;28;20039;-75
2022/10/09 10:38:16;;;;;;;12.00;10.10;;;;;;;16.78;100.00;100221.34;5071767;28;20032;-76
2022/10/09 10:41:04;;;;;;;11.02;10.00;;;;;;;16.81;100.00;100229.00;5073732;28;20059;-73
2022/10/09 10:44:00;;;;;;;11.55;10.35;;;;;;;16.89;100.00;100222.84;5071078;28;20113;-76
2022/10/09 10:46:58;;;;;;;11.38;10.35;;;;;;;17.01;100.00;100218.84;5073527;28;20032;-76
2022/10/09 10:49:25;;;;;;;10.38;9.50;;;;;;;16.98;100.00;100216.50;5071268;28;20040;-76
2022/10/09 10:52:18;;;;;;;10.68;9.65;;;;;;;17.04;100.00;100213.97;5073868;28;20240;-76
2022/10/09 10:55:06;;;;;;;9.27;8.38;;;;;;;17.01;100.00;100213.50;5072000;28;20068;-76
2022/10/09 10:57:55;;;;;;;9.75;8.77;;;;;;;17.05;100.00;100217.50;5072594;28;20032;-75
2022/10/09 11:00:20;;;;;;;9.73;8.85;;;;;;;17.17;100.00;100205.47;5072385;28;20034;-75
2022/10/09 11:02:46;;;;;;;10.07;9.07;;;;;;;17.25;100.00;100210.81;5073379;28;20096;-76
2022/10/09 11:05:26;;;;;;;9.98;8.98;;;;;;;17.39;100.00;100210.09;5073478;28;20058;-76
2022/10/09 11:08:22;;;;;;;11.25;8.73;;;;;;;17.48;100.00;100211.75;5069690;28;20040;-77
2022/10/09 11:11:15;;;;;;;9.95;9.05;;;;;;;17.53;100.00;100204.06;5073371;28;20507;-75
2022/10/09 11:13:52;;;;;;;9.80;8.90;;;;;;;17.45;100.00;100212.06;5072598;28;20055;-76